createdAt,value
2022-08-29T00:06:32.489Z,1459.6955
2022-08-29T00:21:34.379Z,1513.26983
2022-08-29T00:36:36.304Z,1532.30467
2022-08-29T00:51:38.176Z,1559.95393
2022-08-29T01:06:40.100Z,1595.23859
2022-08-29T01:21:42.020Z,1685.53509
2022-08-29T01:36:43.921Z,1730.14898
2022-08-29T01:51:45.824Z,1734.62833
2022-08-29T02:06:47.766Z,1687.65792
2022-08-29T02:21:49.655Z,1679.19849
2022-08-29T02:36:51.532Z,1651.26359
2022-08-29T02:51:53.452Z,1644.17227
2022-08-29T03:06:55.370Z,1643.1642
2022-08-29T03:21:57.314Z,1628.19004
2022-08-29T03:36:59.275Z,1614.45832
2022-08-29T03:52:01.150Z,1631.163
2022-08-29T04:07:03.051Z,1628.19004
2022-08-29T04:22:04.971Z,1606.71512
2022-08-29T04:37:06.903Z,1582.98927
2022-08-29T04:52:08.780Z,1513.26983
2022-08-29T05:07:10.683Z,1363.17447
2022-08-29T05:22:12.564Z,1374.35949
2022-08-29T05:37:14.451Z,1392.93191
2022-08-29T05:52:16.337Z,1375.77053
2022-08-29T06:07:18.235Z,690.74423
2022-08-29T06:22:20.112Z,787.7724
2022-08-29T06:37:22.038Z,902.3574
2022-08-29T06:52:23.918Z,999.25479
2022-08-29T07:07:26.518Z,1099.26219
2022-08-29T07:22:28.432Z,1220.40123
2022-08-29T07:37:30.312Z,1315.01523
2022-08-29T07:52:32.196Z,1407.56354
2022-08-29T08:07:34.141Z,1495.53623
2022-08-29T08:22:36.341Z,1540.23038
2022-08-29T08:37:38.219Z,1630.17081
2022-08-29T08:52:40.126Z,1702.66886
2022-08-29T09:07:42.052Z,1784.28811
2022-08-29T09:22:43.964Z,1859.82007
2022-08-29T09:37:45.882Z,1926.67196
2022-08-29T09:52:47.830Z,1956.20488
2022-08-29T10:07:49.705Z,2052.06788
2022-08-29T10:22:51.602Z,2075.91065
2022-08-29T10:37:53.468Z,2128.67405
2022-08-29T10:52:55.378Z,2189.54299
2022-08-29T11:07:57.280Z,2240.80318
2022-08-29T11:22:59.247Z,2263.51402
2022-08-29T11:38:01.052Z,2308.35537
2022-08-29T11:53:02.981Z,2318.33961
2022-08-29T12:08:26.228Z,2359.15544
2022-08-29T12:23:37.772Z,2382.22273
2022-08-29T12:38:42.333Z,2420.95805
2022-08-29T12:53:44.543Z,2449.72629
2022-08-29T13:08:46.444Z,2458.71611
2022-08-29T13:23:48.351Z,2514.07181
2022-08-29T13:38:50.231Z,2467.77215
2022-08-29T13:53:52.143Z,2429.73759
2022-08-29T14:08:54.067Z,2451.96758
2022-08-29T14:23:55.958Z,2467.77215
2022-08-29T14:38:57.850Z,2472.32524
2022-08-29T14:53:59.750Z,2483.78179
2022-08-29T15:09:01.663Z,2380.10708
2022-08-29T15:24:03.560Z,2286.68993
2022-08-29T15:39:05.465Z,2216.70853
2022-08-29T15:54:07.372Z,2200.32891
2022-08-29T16:09:15.097Z,2182.41093
2022-08-29T16:24:17.926Z,2187.75561
2022-08-29T16:39:19.841Z,2196.72182
2022-08-29T16:54:21.734Z,2198.52388
2022-08-29T17:09:23.557Z,2222.22273
2022-08-29T17:24:25.457Z,2244.55662
2022-08-29T17:39:27.350Z,2257.79326
2022-08-29T17:54:29.248Z,2282.79437
2022-08-29T18:09:31.167Z,2308.35537
2022-08-29T18:24:33.061Z,2288.64269
2022-08-29T18:39:35.006Z,2255.89276
2022-08-29T18:54:37.284Z,2227.76443
2022-08-29T19:09:39.172Z,2202.13691
2022-08-29T19:24:41.079Z,2196.72182
2022-08-29T19:39:42.984Z,2200.32891
2022-08-29T19:54:44.867Z,2175.32518
2022-08-29T20:09:48.405Z,2177.0923
2022-08-29T20:24:50.322Z,2159.54925
2022-08-29T20:39:52.224Z,2120.25367
2022-08-29T20:54:54.183Z,2074.30391
2022-08-29T21:09:56.086Z,2036.47466
2022-08-29T21:24:57.981Z,1998.50908
2022-08-29T21:39:59.915Z,1947.67492
2022-08-29T21:55:01.930Z,1911.55542
2022-08-29T22:10:03.842Z,1857.24235
2022-08-29T22:25:06.722Z,1825.61358
2022-08-29T22:40:08.678Z,1808.36757
2022-08-29T22:55:10.597Z,1772.48727
2022-08-29T23:10:12.485Z,1715.74953
2022-08-29T23:25:14.382Z,1689.78612
2022-08-29T23:40:16.347Z,1636.14213
2022-08-29T23:55:18.283Z,1610.57742
